sensor_id;sensor_type;location;lat;lon;timestamp;temperature;humidity
6164;DHT22;3114;48.362;10.994;2022-12-05T00:02:08;3.20;99.90
6164;DHT22;3114;48.362;10.994;2022-12-05T00:04:35;3.30;99.90
6164;DHT22;3114;48.362;10.994;2022-12-05T00:07:02;3.30;99.90
6164;DHT22;3114;48.362;10.994;2022-12-05T00:09:29;3.10;99.90
6164;DHT22;3114;48.362;10.994;2022-12-05T00:11:56;3.00;99.90
6164;DHT22;3114;48.362;10.994;2022-12-05T00:14:23;2.90;99.90
6164;DHT22;3114;48.362;10.994;2022-12-05T00:16:49;3.10;99.90
6164;DHT22;3114;48.362;10.994;2022-12-05T00:19:18;2.90;99.90
6164;DHT22;3114;48.362;10.994;2022-12-05T00:21:45;3.10;99.90
6164;DHT22;3114;48.362;10.994;2022-12-05T00:24:14;3.00;99.90
6164;DHT22;3114;48.362;10.994;2022-12-05T00:26:41;3.00;99.90
6164;DHT22;3114;48.362;10.994;2022-12-05T00:29:09;3.20;99.90
6164;DHT22;3114;48.362;10.994;2022-12-05T00:31:35;3.30;99.90
6164;DHT22;3114;48.362;10.994;2022-12-05T00:34:03;3.10;99.90
6164;DHT22;3114;48.362;10.994;2022-12-05T00:36:33;3.20;99.90
6164;DHT22;3114;48.362;10.994;2022-12-05T00:39:03;3.50;99.90
6164;DHT22;3114;48.362;10.994;2022-12-05T00:41:30;3.50;99.90
6164;DHT22;3114;48.362;10.994;2022-12-05T00:43:59;3.50;99.90
6164;DHT22;3114;48.362;10.994;2022-12-05T00:46:28;3.40;99.90
6164;DHT22;3114;48.362;10.994;2022-12-05T00:48:56;3.70;99.90
6164;DHT22;3114;48.362;10.994;2022-12-05T00:51:25;4.00;99.90
6164;DHT22;3114;48.362;10.994;2022-12-05T00:53:54;4.10;99.90
6164;DHT22;3114;48.362;10.994;2022-12-05T00:56:24;3.50;99.90
6164;DHT22;3114;48.362;10.994;2022-12-05T00:58:52;3.30;99.90
6164;DHT22;3114;48.362;10.994;2022-12-05T01:01:21;3.40;99.90
6164;DHT22;3114;48.362;10.994;2022-12-05T01:03:51;3.50;99.90
6164;DHT22;3114;48.362;10.994;2022-12-05T01:06:18;3.20;99.90
6164;DHT22;3114;48.362;10.994;2022-12-05T01:08:45;3.40;99.90
6164;DHT22;3114;48.362;10.994;2022-12-05T01:11:16;3.10;99.90
6164;DHT22;3114;48.362;10.994;2022-12-05T01:13:44;3.30;99.90
6164;DHT22;3114;48.362;10.994;2022-12-05T01:16:14;3.40;99.90
6164;DHT22;3114;48.362;10.994;2022-12-05T01:18:41;3.30;99.90
6164;DHT22;3114;48.362;10.994;2022-12-05T01:21:09;3.30;99.90
6164;DHT22;3114;48.362;10.994;2022-12-05T01:23:36;3.20;99.90
6164;DHT22;3114;48.362;10.994;2022-12-05T01:26:05;3.20;99.90
6164;DHT22;3114;48.362;10.994;2022-12-05T01:28:36;3.20;99.90
6164;DHT22;3114;48.362;10.994;2022-12-05T01:31:04;3.00;99.90
6164;DHT22;3114;48.362;10.994;2022-12-05T01:33:31;2.90;99.90
6164;DHT22;3114;48.362;10.994;2022-12-05T01:35:58;2.80;99.90
6164;DHT22;3114;48.362;10.994;2022-12-05T01:38:25;2.90;99.90
6164;DHT22;3114;48.362;10.994;2022-12-05T01:40:59;2.80;99.90
6164;DHT22;3114;48.362;10.994;2022-12-05T01:43:26;2.70;99.90
6164;DHT22;3114;48.362;10.994;2022-12-05T01:45:55;2.70;99.90
6164;DHT22;3114;48.362;10.994;2022-12-05T01:48:24;2.80;99.90
6164;DHT22;3114;48.362;10.994;2022-12-05T01:50:52;2.90;99.90
6164;DHT22;3114;48.362;10.994;2022-12-05T01:53:20;3.50;99.90
6164;DHT22;3114;48.362;10.994;2022-12-05T01:55:49;2.50;99.90
6164;DHT22;3114;48.362;10.994;2022-12-05T01:58:17;2.50;99.90
6164;DHT22;3114;48.362;10.994;2022-12-05T02:00:44;2.70;99.90
6164;DHT22;3114;48.362;10.994;2022-12-05T02:03:16;2.50;99.90
6164;DHT22;3114;48.362;10.994;2022-12-05T02:05:45;2.50;99.90
6164;DHT22;3114;48.362;10.994;2022-12-05T02:08:12;2.50;99.90
6164;DHT22;3114;48.362;10.994;2022-12-05T02:10:44;2.60;99.90
6164;DHT22;3114;48.362;10.994;2022-12-05T02:13:31;2.50;99.90
6164;DHT22;3114;48.362;10.994;2022-12-05T02:16:03;2.50;99.90
6164;DHT22;3114;48.362;10.994;2022-12-05T02:18:45;2.60;99.90
6164;DHT22;3114;48.362;10.994;2022-12-05T02:24:32;2.50;99.90
6164;DHT22;3114;48.362;10.994;2022-12-05T02:27:16;2.60;99.90
6164;DHT22;3114;48.362;10.994;2022-12-05T02:30:07;2.60;99.90
6164;DHT22;3114;48.362;10.994;2022-12-05T02:32:49;2.50;99.90
6164;DHT22;3114;48.362;10.994;2022-12-05T02:35:27;2.40;99.90
6164;DHT22;3114;48.362;10.994;2022-12-05T02:38:03;2.40;99.90
6164;DHT22;3114;48.362;10.994;2022-12-05T02:40:40;2.30;99.90
6164;DHT22;3114;48.362;10.994;2022-12-05T02:43:12;2.30;99.90
6164;DHT22;3114;48.362;10.994;2022-12-05T02:45:43;2.40;99.90
6164;DHT22;3114;48.362;10.994;2022-12-05T02:48:14;2.20;99.90
6164;DHT22;3114;48.362;10.994;2022-12-05T02:50:43;2.20;99.90
6164;DHT22;3114;48.362;10.994;2022-12-05T02:53:14;2.30;99.90
6164;DHT22;3114;48.362;10.994;2022-12-05T02:55:42;2.40;99.90
6164;DHT22;3114;48.362;10.994;2022-12-05T02:58:15;2.40;99.90
6164;DHT22;3114;48.362;10.994;2022-12-05T03:00:47;2.50;99.90
6164;DHT22;3114;48.362;10.994;2022-12-05T03:03:17;2.50;99.90
6164;DHT22;3114;48.362;10.994;2022-12-05T03:05:50;2.50;99.90
6164;DHT22;3114;48.362;10.994;2022-12-05T03:08:22;2.50;99.90
6164;DHT22;3114;48.362;10.994;2022-12-05T03:10:52;2.40;99.90
6164;DHT22;3114;48.362;10.994;2022-12-05T03:13:23;2.50;99.90
6164;DHT22;3114;48.362;10.994;2022-12-05T03:15:57;2.50;99.90
6164;DHT22;3114;48.362;10.994;2022-12-05T03:18:28;2.50;99.90
6164;DHT22;3114;48.362;10.994;2022-12-05T03:20:59;2.40;99.90
6164;DHT22;3114;48.362;10.994;2022-12-05T03:23:31;2.50;99.90
6164;DHT22;3114;48.362;10.994;2022-12-05T03:26:04;2.40;99.90
6164;DHT22;3114;48.362;10.994;2022-12-05T03:28:46;2.40;99.90
6164;DHT22;3114;48.362;10.994;2022-12-05T03:31:22;2.50;99.90
6164;DHT22;3114;48.362;10.994;2022-12-05T03:33:55;2.40;99.90
6164;DHT22;3114;48.362;10.994;2022-12-05T03:36:28;2.30;99.90
6164;DHT22;3114;48.362;10.994;2022-12-05T03:39:02;2.30;99.90
6164;DHT22;3114;48.362;10.994;2022-12-05T03:41:40;2.30;99.90
6164;DHT22;3114;48.362;10.994;2022-12-05T03:44:12;2.40;99.90
6164;DHT22;3114;48.362;10.994;2022-12-05T03:46:44;2.40;99.90
6164;DHT22;3114;48.362;10.994;2022-12-05T03:49:17;2.30;99.90
6164;DHT22;3114;48.362;10.994;2022-12-05T03:51:52;2.40;99.90
6164;DHT22;3114;48.362;10.994;2022-12-05T03:54:24;2.60;99.90
6164;DHT22;3114;48.362;10.994;2022-12-05T03:56:55;2.60;99.90
6164;DHT22;3114;48.362;10.994;2022-12-05T03:59:29;2.70;99.90
6164;DHT22;3114;48.362;10.994;2022-12-05T04:02:03;2.50;99.90
6164;DHT22;3114;48.362;10.994;2022-12-05T04:04:34;2.40;99.90
6164;DHT22;3114;48.362;10.994;2022-12-05T04:07:04;2.60;99.90
6164;DHT22;3114;48.362;10.994;2022-12-05T04:09:35;2.50;99.90
6164;DHT22;3114;48.362;10.994;2022-12-05T04:12:07;2.50;99.90
6164;DHT22;3114;48.362;10.994;2022-12-05T04:14:38;2.80;99.90
6164;DHT22;3114;48.362;10.994;2022-12-05T04:17:10;2.90;99.90
6164;DHT22;3114;48.362;10.994;2022-12-05T04:19:43;3.00;99.90
6164;DHT22;3114;48.362;10.994;2022-12-05T04:22:28;3.10;99.90
6164;DHT22;3114;48.362;10.994;2022-12-05T04:24:57;3.10;99.90
6164;DHT22;3114;48.362;10.994;2022-12-05T04:27:49;3.30;99.90
6164;DHT22;3114;48.362;10.994;2022-12-05T04:30:19;3.40;99.90
6164;DHT22;3114;48.362;10.994;2022-12-05T04:32:53;3.40;99.90
6164;DHT22;3114;48.362;10.994;2022-12-05T04:35:26;3.30;99.90
6164;DHT22;3114;48.362;10.994;2022-12-05T04:37:59;3.20;99.90
6164;DHT22;3114;48.362;10.994;2022-12-05T04:40:30;3.20;99.90
6164;DHT22;3114;48.362;10.994;2022-12-05T04:43:01;3.20;99.90
6164;DHT22;3114;48.362;10.994;2022-12-05T04:45:30;3.40;99.90
6164;DHT22;3114;48.362;10.994;2022-12-05T04:48:04;3.60;99.90
6164;DHT22;3114;48.362;10.994;2022-12-05T04:50:33;3.60;99.90
6164;DHT22;3114;48.362;10.994;2022-12-05T04:53:02;3.50;99.90
6164;DHT22;3114;48.362;10.994;2022-12-05T04:55:32;3.50;99.90
6164;DHT22;3114;48.362;10.994;2022-12-05T04:58:05;3.60;99.90
6164;DHT22;3114;48.362;10.994;2022-12-05T05:00:37;3.50;99.90
6164;DHT22;3114;48.362;10.994;2022-12-05T05:03:09;3.30;99.90
6164;DHT22;3114;48.362;10.994;2022-12-05T05:05:37;3.40;99.90
6164;DHT22;3114;48.362;10.994;2022-12-05T05:08:15;3.60;99.90
6164;DHT22;3114;48.362;10.994;2022-12-05T05:10:49;3.60;99.90
6164;DHT22;3114;48.362;10.994;2022-12-05T05:13:17;3.70;99.90
6164;DHT22;3114;48.362;10.994;2022-12-05T05:15:44;3.80;99.90
6164;DHT22;3114;48.362;10.994;2022-12-05T05:18:12;4.00;99.90
6164;DHT22;3114;48.362;10.994;2022-12-05T05:20:39;4.10;99.90
6164;DHT22;3114;48.362;10.994;2022-12-05T05:23:06;4.00;99.90
6164;DHT22;3114;48.362;10.994;2022-12-05T05:25:32;3.90;99.90
6164;DHT22;3114;48.362;10.994;2022-12-05T05:27:59;4.10;99.90
6164;DHT22;3114;48.362;10.994;2022-12-05T05:30:26;4.10;99.90
6164;DHT22;3114;48.362;10.994;2022-12-05T05:32:53;4.10;99.90
6164;DHT22;3114;48.362;10.994;2022-12-05T05:35:21;4.10;99.90
6164;DHT22;3114;48.362;10.994;2022-12-05T05:37:48;4.40;99.90
6164;DHT22;3114;48.362;10.994;2022-12-05T05:40:15;4.40;99.90
6164;DHT22;3114;48.362;10.994;2022-12-05T05:42:43;4.40;99.90
6164;DHT22;3114;48.362;10.994;2022-12-05T05:45:11;4.50;99.90
6164;DHT22;3114;48.362;10.994;2022-12-05T05:47:38;4.30;99.90
6164;DHT22;3114;48.362;10.994;2022-12-05T05:50:06;4.20;99.90
6164;DHT22;3114;48.362;10.994;2022-12-05T05:52:35;4.30;99.90
6164;DHT22;3114;48.362;10.994;2022-12-05T05:55:04;4.30;99.90
6164;DHT22;3114;48.362;10.994;2022-12-05T05:57:31;4.20;99.90
6164;DHT22;3114;48.362;10.994;2022-12-05T05:59:58;4.10;99.90
6164;DHT22;3114;48.362;10.994;2022-12-05T06:02:25;4.00;99.90
6164;DHT22;3114;48.362;10.994;2022-12-05T06:04:52;4.20;99.90
6164;DHT22;3114;48.362;10.994;2022-12-05T06:07:19;4.30;99.90
6164;DHT22;3114;48.362;10.994;2022-12-05T06:09:47;4.30;99.90
6164;DHT22;3114;48.362;10.994;2022-12-05T06:12:13;4.40;99.90
6164;DHT22;3114;48.362;10.994;2022-12-05T06:14:40;4.10;99.90
6164;DHT22;3114;48.362;10.994;2022-12-05T06:17:07;4.00;99.90
6164;DHT22;3114;48.362;10.994;2022-12-05T06:19:34;4.10;99.90
6164;DHT22;3114;48.362;10.994;2022-12-05T06:22:01;4.10;99.90
6164;DHT22;3114;48.362;10.994;2022-12-05T06:24:28;4.20;99.90
6164;DHT22;3114;48.362;10.994;2022-12-05T06:26:56;4.30;99.90
6164;DHT22;3114;48.362;10.994;2022-12-05T06:29:23;4.30;99.90
6164;DHT22;3114;48.362;10.994;2022-12-05T06:31:49;4.20;99.90
6164;DHT22;3114;48.362;10.994;2022-12-05T06:34:16;4.20;99.90
6164;DHT22;3114;48.362;10.994;2022-12-05T06:36:43;4.20;99.90
6164;DHT22;3114;48.362;10.994;2022-12-05T06:39:10;4.20;99.90
6164;DHT22;3114;48.362;10.994;2022-12-05T06:41:37;4.30;99.90
6164;DHT22;3114;48.362;10.994;2022-12-05T06:44:05;4.30;99.90
6164;DHT22;3114;48.362;10.994;2022-12-05T06:46:32;4.40;99.90
6164;DHT22;3114;48.362;10.994;2022-12-05T06:48:59;4.30;99.90
6164;DHT22;3114;48.362;10.994;2022-12-05T06:51:26;4.30;99.90
6164;DHT22;3114;48.362;10.994;2022-12-05T06:53:54;4.20;99.90
6164;DHT22;3114;48.362;10.994;2022-12-05T06:56:21;4.20;99.90
6164;DHT22;3114;48.362;10.994;2022-12-05T06:58:49;4.20;99.90
6164;DHT22;3114;48.362;10.994;2022-12-05T07:01:20;4.40;99.90
6164;DHT22;3114;48.362;10.994;2022-12-05T07:04:09;4.10;99.90
6164;DHT22;3114;48.362;10.994;2022-12-05T07:06:36;4.20;99.90
6164;DHT22;3114;48.362;10.994;2022-12-05T07:09:05;4.30;99.90
6164;DHT22;3114;48.362;10.994;2022-12-05T07:11:32;4.50;99.90
6164;DHT22;3114;48.362;10.994;2022-12-05T07:14:00;4.60;99.90
6164;DHT22;3114;48.362;10.994;2022-12-05T07:16:28;4.70;99.90
6164;DHT22;3114;48.362;10.994;2022-12-05T07:18:55;4.70;99.90
6164;DHT22;3114;48.362;10.994;2022-12-05T07:21:22;4.70;99.90
6164;DHT22;3114;48.362;10.994;2022-12-05T07:23:50;4.80;99.90
6164;DHT22;3114;48.362;10.994;2022-12-05T07:26:18;4.80;99.90
6164;DHT22;3114;48.362;10.994;2022-12-05T07:28:46;4.90;99.90
6164;DHT22;3114;48.362;10.994;2022-12-05T07:31:15;5.00;99.90
6164;DHT22;3114;48.362;10.994;2022-12-05T07:33:43;5.00;99.90
6164;DHT22;3114;48.362;10.994;2022-12-05T07:36:12;4.80;99.90
6164;DHT22;3114;48.362;10.994;2022-12-05T07:38:40;4.50;99.90
6164;DHT22;3114;48.362;10.994;2022-12-05T07:41:09;4.60;99.90
6164;DHT22;3114;48.362;10.994;2022-12-05T07:43:36;4.60;99.90
6164;DHT22;3114;48.362;10.994;2022-12-05T07:46:04;4.40;99.90
6164;DHT22;3114;48.362;10.994;2022-12-05T07:48:32;4.40;99.90
6164;DHT22;3114;48.362;10.994;2022-12-05T07:51:01;4.50;99.90
6164;DHT22;3114;48.362;10.994;2022-12-05T07:53:29;4.70;99.90
6164;DHT22;3114;48.362;10.994;2022-12-05T07:55:58;4.70;99.90
6164;DHT22;3114;48.362;10.994;2022-12-05T07:58:27;4.80;99.90
6164;DHT22;3114;48.362;10.994;2022-12-05T08:00:54;5.00;99.90
6164;DHT22;3114;48.362;10.994;2022-12-05T08:03:21;5.00;99.90
6164;DHT22;3114;48.362;10.994;2022-12-05T08:05:48;5.10;99.90
6164;DHT22;3114;48.362;10.994;2022-12-05T08:08:17;5.30;99.90
6164;DHT22;3114;48.362;10.994;2022-12-05T08:10:44;5.30;99.90
6164;DHT22;3114;48.362;10.994;2022-12-05T08:13:10;5.10;99.90
6164;DHT22;3114;48.362;10.994;2022-12-05T08:15:37;5.20;99.90
6164;DHT22;3114;48.362;10.994;2022-12-05T08:18:04;5.30;99.90
6164;DHT22;3114;48.362;10.994;2022-12-05T08:20:31;5.20;99.90
6164;DHT22;3114;48.362;10.994;2022-12-05T08:22:58;5.30;99.90
6164;DHT22;3114;48.362;10.994;2022-12-05T08:25:26;5.30;99.90
6164;DHT22;3114;48.362;10.994;2022-12-05T08:27:53;5.20;99.90
6164;DHT22;3114;48.362;10.994;2022-12-05T08:30:20;5.10;99.90
6164;DHT22;3114;48.362;10.994;2022-12-05T08:32:47;5.10;99.90
6164;DHT22;3114;48.362;10.994;2022-12-05T08:35:14;5.20;99.90
6164;DHT22;3114;48.362;10.994;2022-12-05T08:37:41;5.30;99.90
6164;DHT22;3114;48.362;10.994;2022-12-05T08:40:08;5.30;99.90
6164;DHT22;3114;48.362;10.994;2022-12-05T08:42:36;5.40;99.90
6164;DHT22;3114;48.362;10.994;2022-12-05T08:45:04;5.50;99.90
6164;DHT22;3114;48.362;10.994;2022-12-05T08:47:31;5.10;99.90
6164;DHT22;3114;48.362;10.994;2022-12-05T08:49:57;5.30;99.90
6164;DHT22;3114;48.362;10.994;2022-12-05T08:52:24;5.20;99.90
6164;DHT22;3114;48.362;10.994;2022-12-05T08:54:51;5.40;99.90
6164;DHT22;3114;48.362;10.994;2022-12-05T08:57:18;5.60;99.90
6164;DHT22;3114;48.362;10.994;2022-12-05T08:59:46;5.60;99.90
6164;DHT22;3114;48.362;10.994;2022-12-05T09:02:13;5.60;99.90
6164;DHT22;3114;48.362;10.994;2022-12-05T09:04:40;5.70;99.90
6164;DHT22;3114;48.362;10.994;2022-12-05T09:07:07;5.60;99.90
6164;DHT22;3114;48.362;10.994;2022-12-05T09:09:34;5.50;99.90
6164;DHT22;3114;48.362;10.994;2022-12-05T09:12:01;5.70;99.90
6164;DHT22;3114;48.362;10.994;2022-12-05T09:14:28;5.40;99.90
6164;DHT22;3114;48.362;10.994;2022-12-05T09:16:59;5.40;99.90
6164;DHT22;3114;48.362;10.994;2022-12-05T09:19:27;5.40;99.90
6164;DHT22;3114;48.362;10.994;2022-12-05T09:21:54;5.40;99.90
6164;DHT22;3114;48.362;10.994;2022-12-05T09:24:21;5.50;99.90
6164;DHT22;3114;48.362;10.994;2022-12-05T09:26:49;5.70;99.90
6164;DHT22;3114;48.362;10.994;2022-12-05T09:29:16;5.60;99.90
6164;DHT22;3114;48.362;10.994;2022-12-05T09:31:43;5.80;99.90
6164;DHT22;3114;48.362;10.994;2022-12-05T09:34:11;5.80;99.90
6164;DHT22;3114;48.362;10.994;2022-12-05T09:36:39;5.60;99.90
6164;DHT22;3114;48.362;10.994;2022-12-05T09:39:06;5.70;99.90
6164;DHT22;3114;48.362;10.994;2022-12-05T09:41:46;5.70;99.90
6164;DHT22;3114;48.362;10.994;2022-12-05T09:44:41;5.50;99.90
6164;DHT22;3114;48.362;10.994;2022-12-05T09:47:16;5.50;99.90
6164;DHT22;3114;48.362;10.994;2022-12-05T09:49:50;5.40;99.90
6164;DHT22;3114;48.362;10.994;2022-12-05T09:52:24;5.60;99.90
6164;DHT22;3114;48.362;10.994;2022-12-05T09:54:53;5.70;99.90
6164;DHT22;3114;48.362;10.994;2022-12-05T09:57:25;5.60;99.90
6164;DHT22;3114;48.362;10.994;2022-12-05T09:59:57;5.50;99.90
6164;DHT22;3114;48.362;10.994;2022-12-05T10:02:31;5.40;99.90
6164;DHT22;3114;48.362;10.994;2022-12-05T10:05:10;5.40;99.90
6164;DHT22;3114;48.362;10.994;2022-12-05T10:07:42;5.40;99.90
6164;DHT22;3114;48.362;10.994;2022-12-05T10:10:27;5.60;99.90
6164;DHT22;3114;48.362;10.994;2022-12-05T10:13:09;5.60;99.90
6164;DHT22;3114;48.362;10.994;2022-12-05T10:15:42;5.60;99.90
6164;DHT22;3114;48.362;10.994;2022-12-05T10:18:17;5.70;99.90
6164;DHT22;3114;48.362;10.994;2022-12-05T10:20:53;5.80;99.90
6164;DHT22;3114;48.362;10.994;2022-12-05T10:23:25;5.60;99.90
6164;DHT22;3114;48.362;10.994;2022-12-05T10:25:56;5.80;99.90
6164;DHT22;3114;48.362;10.994;2022-12-05T10:28:29;6.00;99.90
6164;DHT22;3114;48.362;10.994;2022-12-05T10:31:01;6.20;99.90
6164;DHT22;3114;48.362;10.994;2022-12-05T10:33:37;6.30;99.90
6164;DHT22;3114;48.362;10.994;2022-12-05T10:36:10;6.40;99.90
6164;DHT22;3114;48.362;10.994;2022-12-05T10:38:38;6.30;99.90
6164;DHT22;3114;48.362;10.994;2022-12-05T10:41:07;6.20;99.90
6164;DHT22;3114;48.362;10.994;2022-12-05T10:43:35;6.20;99.90
6164;DHT22;3114;48.362;10.994;2022-12-05T10:46:03;6.10;99.90
6164;DHT22;3114;48.362;10.994;2022-12-05T10:48:34;6.30;99.90
6164;DHT22;3114;48.362;10.994;2022-12-05T10:51:03;6.40;99.90
6164;DHT22;3114;48.362;10.994;2022-12-05T10:53:38;6.40;99.90
6164;DHT22;3114;48.362;10.994;2022-12-05T10:56:36;6.30;99.90
6164;DHT22;3114;48.362;10.994;2022-12-05T10:59:04;6.20;99.90
6164;DHT22;3114;48.362;10.994;2022-12-05T11:01:31;6.30;99.90
6164;DHT22;3114;48.362;10.994;2022-12-05T11:04:00;6.50;99.90
6164;DHT22;3114;48.362;10.994;2022-12-05T11:06:31;6.40;99.90
6164;DHT22;3114;48.362;10.994;2022-12-05T11:09:17;6.40;99.90
6164;DHT22;3114;48.362;10.994;2022-12-05T11:11:56;6.30;99.90
6164;DHT22;3114;48.362;10.994;2022-12-05T11:14:26;6.50;99.90
6164;DHT22;3114;48.362;10.994;2022-12-05T11:16:55;6.70;99.90
6164;DHT22;3114;48.362;10.994;2022-12-05T11:19:26;6.80;99.90
6164;DHT22;3114;48.362;10.994;2022-12-05T11:21:53;6.80;99.90
6164;DHT22;3114;48.362;10.994;2022-12-05T11:24:26;6.60;99.90
6164;DHT22;3114;48.362;10.994;2022-12-05T11:26:54;6.50;99.90
6164;DHT22;3114;48.362;10.994;2022-12-05T11:29:29;6.10;99.90
6164;DHT22;3114;48.362;10.994;2022-12-05T11:31:57;5.90;99.90
6164;DHT22;3114;48.362;10.994;2022-12-05T11:34:27;5.80;99.90
6164;DHT22;3114;48.362;10.994;2022-12-05T11:36:57;6.00;99.90
6164;DHT22;3114;48.362;10.994;2022-12-05T11:39:26;6.00;99.90
6164;DHT22;3114;48.362;10.994;2022-12-05T11:42:07;5.90;99.90
6164;DHT22;3114;48.362;10.994;2022-12-05T11:47:58;5.90;99.90
6164;DHT22;3114;48.362;10.994;2022-12-05T11:50:35;5.90;99.90
6164;DHT22;3114;48.362;10.994;2022-12-05T11:53:19;5.80;99.90
6164;DHT22;3114;48.362;10.994;2022-12-05T11:55:57;5.90;99.90
6164;DHT22;3114;48.362;10.994;2022-12-05T11:58:40;6.10;99.90
6164;DHT22;3114;48.362;10.994;2022-12-05T12:01:15;6.10;99.90
6164;DHT22;3114;48.362;10.994;2022-12-05T12:04:03;6.10;99.90
6164;DHT22;3114;48.362;10.994;2022-12-05T12:06:43;6.00;99.90
6164;DHT22;3114;48.362;10.994;2022-12-05T12:09:26;5.90;99.90
6164;DHT22;3114;48.362;10.994;2022-12-05T12:12:02;6.00;99.90
6164;DHT22;3114;48.362;10.994;2022-12-05T12:14:37;6.10;99.90
6164;DHT22;3114;48.362;10.994;2022-12-05T12:17:18;6.20;99.90
6164;DHT22;3114;48.362;10.994;2022-12-05T12:20:10;6.20;99.90
6164;DHT22;3114;48.362;10.994;2022-12-05T12:22:51;6.20;99.90
6164;DHT22;3114;48.362;10.994;2022-12-05T12:25:34;6.10;99.90
6164;DHT22;3114;48.362;10.994;2022-12-05T12:28:17;6.10;99.90
6164;DHT22;3114;48.362;10.994;2022-12-05T12:30:59;6.10;99.90
6164;DHT22;3114;48.362;10.994;2022-12-05T12:33:31;6.00;99.90
6164;DHT22;3114;48.362;10.994;2022-12-05T12:36:06;6.10;99.90
6164;DHT22;3114;48.362;10.994;2022-12-05T12:39:02;6.20;99.90
6164;DHT22;3114;48.362;10.994;2022-12-05T12:41:50;6.00;99.90
6164;DHT22;3114;48.362;10.994;2022-12-05T12:44:39;5.80;99.90
6164;DHT22;3114;48.362;10.994;2022-12-05T12:47:11;5.90;99.90
6164;DHT22;3114;48.362;10.994;2022-12-05T12:49:51;5.90;99.90
6164;DHT22;3114;48.362;10.994;2022-12-05T12:52:23;5.80;99.90
6164;DHT22;3114;48.362;10.994;2022-12-05T12:55:11;5.80;99.90
6164;DHT22;3114;48.362;10.994;2022-12-05T12:57:58;5.80;99.90
6164;DHT22;3114;48.362;10.994;2022-12-05T13:00:37;5.80;99.90
6164;DHT22;3114;48.362;10.994;2022-12-05T13:03:12;5.80;99.90
6164;DHT22;3114;48.362;10.994;2022-12-05T13:05:45;5.60;99.90
6164;DHT22;3114;48.362;10.994;2022-12-05T13:08:18;5.60;99.90
6164;DHT22;3114;48.362;10.994;2022-12-05T13:10:48;5.50;99.90
6164;DHT22;3114;48.362;10.994;2022-12-05T13:13:18;5.50;99.90
6164;DHT22;3114;48.362;10.994;2022-12-05T13:15:50;5.40;99.90
6164;DHT22;3114;48.362;10.994;2022-12-05T13:18:20;5.40;99.90
6164;DHT22;3114;48.362;10.994;2022-12-05T13:20:49;5.50;99.90
6164;DHT22;3114;48.362;10.994;2022-12-05T13:23:19;5.40;99.90
6164;DHT22;3114;48.362;10.994;2022-12-05T13:25:48;5.50;99.90
6164;DHT22;3114;48.362;10.994;2022-12-05T13:28:25;5.40;99.90
6164;DHT22;3114;48.362;10.994;2022-12-05T13:30:54;5.50;99.90
6164;DHT22;3114;48.362;10.994;2022-12-05T13:33:30;5.50;99.90
6164;DHT22;3114;48.362;10.994;2022-12-05T13:36:04;5.50;99.90
6164;DHT22;3114;48.362;10.994;2022-12-05T13:38:55;5.50;99.90
6164;DHT22;3114;48.362;10.994;2022-12-05T13:41:42;5.60;99.90
6164;DHT22;3114;48.362;10.994;2022-12-05T13:44:31;5.60;99.90
6164;DHT22;3114;48.362;10.994;2022-12-05T13:47:01;5.60;99.90
6164;DHT22;3114;48.362;10.994;2022-12-05T13:49:39;5.50;99.90
6164;DHT22;3114;48.362;10.994;2022-12-05T13:52:11;5.40;99.90
6164;DHT22;3114;48.362;10.994;2022-12-05T13:54:43;5.60;99.90
6164;DHT22;3114;48.362;10.994;2022-12-05T14:00:30;5.50;99.90
6164;DHT22;3114;48.362;10.994;2022-12-05T14:03:01;5.60;99.90
6164;DHT22;3114;48.362;10.994;2022-12-05T14:05:47;5.40;99.90
6164;DHT22;3114;48.362;10.994;2022-12-05T14:11:30;5.40;99.90
6164;DHT22;3114;48.362;10.994;2022-12-05T14:13:58;5.40;99.90
6164;DHT22;3114;48.362;10.994;2022-12-05T14:16:46;5.40;99.90
6164;DHT22;3114;48.362;10.994;2022-12-05T14:22:52;5.50;99.90
6164;DHT22;3114;48.362;10.994;2022-12-05T14:25:37;5.40;99.90
6164;DHT22;3114;48.362;10.994;2022-12-05T14:28:17;5.30;99.90
6164;DHT22;3114;48.362;10.994;2022-12-05T14:31:04;5.40;99.90
6164;DHT22;3114;48.362;10.994;2022-12-05T14:33:37;5.50;99.90
6164;DHT22;3114;48.362;10.994;2022-12-05T14:36:05;5.50;99.90
6164;DHT22;3114;48.362;10.994;2022-12-05T14:38:36;5.40;99.90
6164;DHT22;3114;48.362;10.994;2022-12-05T14:41:12;5.40;99.90
6164;DHT22;3114;48.362;10.994;2022-12-05T14:43:40;5.40;99.90
6164;DHT22;3114;48.362;10.994;2022-12-05T14:46:15;5.50;99.90
6164;DHT22;3114;48.362;10.994;2022-12-05T14:48:45;5.60;99.90
6164;DHT22;3114;48.362;10.994;2022-12-05T14:51:42;5.60;99.90
6164;DHT22;3114;48.362;10.994;2022-12-05T14:54:13;5.70;99.90
6164;DHT22;3114;48.362;10.994;2022-12-05T14:56:43;5.50;99.90
6164;DHT22;3114;48.362;10.994;2022-12-05T14:59:20;5.60;99.90
6164;DHT22;3114;48.362;10.994;2022-12-05T15:01:51;5.50;99.90
6164;DHT22;3114;48.362;10.994;2022-12-05T15:04:23;5.30;99.90
6164;DHT22;3114;48.362;10.994;2022-12-05T15:06:57;5.30;99.90
6164;DHT22;3114;48.362;10.994;2022-12-05T15:09:36;5.50;99.90
6164;DHT22;3114;48.362;10.994;2022-12-05T15:12:12;5.50;99.90
6164;DHT22;3114;48.362;10.994;2022-12-05T15:14:45;5.80;99.90
6164;DHT22;3114;48.362;10.994;2022-12-05T15:17:16;5.90;99.90
6164;DHT22;3114;48.362;10.994;2022-12-05T15:19:50;6.00;99.90
6164;DHT22;3114;48.362;10.994;2022-12-05T15:22:20;6.20;99.90
6164;DHT22;3114;48.362;10.994;2022-12-05T15:24:49;6.10;99.90
6164;DHT22;3114;48.362;10.994;2022-12-05T15:27:16;5.90;99.90
6164;DHT22;3114;48.362;10.994;2022-12-05T15:29:43;5.90;99.90
6164;DHT22;3114;48.362;10.994;2022-12-05T15:32:16;5.80;99.90
6164;DHT22;3114;48.362;10.994;2022-12-05T15:34:47;5.80;99.90
6164;DHT22;3114;48.362;10.994;2022-12-05T15:37:19;5.70;99.90
6164;DHT22;3114;48.362;10.994;2022-12-05T15:39:53;5.70;99.90
6164;DHT22;3114;48.362;10.994;2022-12-05T15:42:23;5.80;99.90
6164;DHT22;3114;48.362;10.994;2022-12-05T15:44:50;5.80;99.90
6164;DHT22;3114;48.362;10.994;2022-12-05T15:47:21;6.00;99.90
6164;DHT22;3114;48.362;10.994;2022-12-05T15:49:49;6.00;99.90
6164;DHT22;3114;48.362;10.994;2022-12-05T15:52:26;6.10;99.90
6164;DHT22;3114;48.362;10.994;2022-12-05T15:54:58;6.30;99.90
6164;DHT22;3114;48.362;10.994;2022-12-05T15:57:30;6.50;99.90
6164;DHT22;3114;48.362;10.994;2022-12-05T16:00:03;6.50;99.90
6164;DHT22;3114;48.362;10.994;2022-12-05T16:02:38;6.70;99.90
6164;DHT22;3114;48.362;10.994;2022-12-05T16:05:18;6.60;99.90
6164;DHT22;3114;48.362;10.994;2022-12-05T16:07:48;6.70;99.90
6164;DHT22;3114;48.362;10.994;2022-12-05T16:10:17;6.80;99.90
6164;DHT22;3114;48.362;10.994;2022-12-05T16:12:46;6.60;99.90
6164;DHT22;3114;48.362;10.994;2022-12-05T16:15:16;6.40;99.90
6164;DHT22;3114;48.362;10.994;2022-12-05T16:17:46;6.40;99.90
6164;DHT22;3114;48.362;10.994;2022-12-05T16:20:27;6.40;99.90
6164;DHT22;3114;48.362;10.994;2022-12-05T16:22:58;6.30;99.90
6164;DHT22;3114;48.362;10.994;2022-12-05T16:25:29;6.40;99.90
6164;DHT22;3114;48.362;10.994;2022-12-05T16:28:00;6.30;99.90
6164;DHT22;3114;48.362;10.994;2022-12-05T16:30:28;6.40;99.90
6164;DHT22;3114;48.362;10.994;2022-12-05T16:33:02;6.40;99.90
6164;DHT22;3114;48.362;10.994;2022-12-05T16:35:40;6.30;99.90
6164;DHT22;3114;48.362;10.994;2022-12-05T16:38:13;6.30;99.90
6164;DHT22;3114;48.362;10.994;2022-12-05T16:40:55;6.10;99.90
6164;DHT22;3114;48.362;10.994;2022-12-05T16:43:39;6.10;99.90
6164;DHT22;3114;48.362;10.994;2022-12-05T16:46:39;6.30;99.90
6164;DHT22;3114;48.362;10.994;2022-12-05T16:49:18;6.60;99.90